Thomastown, Mississippi
Current Conditions -  °F | °C
As of 12:54 AM on Monday 22 Dec 2014 (Local Time) from KJAN Reporting Station
Overcast Overcast  
Wind Chill: 51°   Ceiling: 500
Heat Index: 51°   Visibility: 7mi
Dew Point: 49°   Wind: 7mph
Humidity: 92%   Direction: 150°SSE
Pressure: 29.92"   Gusts: NA
Location:  32.86°N, 89.67°W
Report Text: KJAN 220654Z AUTO 15006KT 7SM OVC005 11/09 A2992 RMK AO2 SLP131 T01060094
Loading
Personal Weather Stations






























Interactive Weather Map New forecast layout! Learn more

10-Day Weather Forecast

Advertisements
Track Severe Weather on mobile